sensor_id;sensor_type;location;lat;lon;timestamp;P1;durP1;ratioP1;P2;durP2;ratioP2
29954;SDS011;16812;51.168;6.840;2022-08-14T00:00:04;8.63;;;4.37;;
29954;SDS011;16812;51.168;6.840;2022-08-14T00:02:36;5.50;;;4.90;;
29954;SDS011;16812;51.168;6.840;2022-08-14T00:05:04;6.20;;;5.03;;
29954;SDS011;16812;51.168;6.840;2022-08-14T00:07:32;5.40;;;4.90;;
29954;SDS011;16812;51.168;6.840;2022-08-14T00:09:59;6.50;;;4.97;;
29954;SDS011;16812;51.168;6.840;2022-08-14T00:12:49;13.37;;;4.90;;
29954;SDS011;16812;51.168;6.840;2022-08-14T00:15:24;7.40;;;5.20;;
29954;SDS011;16812;51.168;6.840;2022-08-14T00:17:55;6.00;;;5.40;;
29954;SDS011;16812;51.168;6.840;2022-08-14T00:20:23;5.33;;;4.60;;
29954;SDS011;16812;51.168;6.840;2022-08-14T00:22:56;7.07;;;5.10;;
29954;SDS011;16812;51.168;6.840;2022-08-14T00:25:37;7.00;;;6.30;;
29954;SDS011;16812;51.168;6.840;2022-08-14T00:28:10;16.00;;;5.90;;
29954;SDS011;16812;51.168;6.840;2022-08-14T00:30:43;6.00;;;5.40;;
29954;SDS011;16812;51.168;6.840;2022-08-14T00:33:10;7.83;;;5.43;;
29954;SDS011;16812;51.168;6.840;2022-08-14T00:35:41;7.13;;;6.00;;
29954;SDS011;16812;51.168;6.840;2022-08-14T00:38:28;5.57;;;5.07;;
29954;SDS011;16812;51.168;6.840;2022-08-14T00:40:59;6.43;;;5.00;;
29954;SDS011;16812;51.168;6.840;2022-08-14T00:43:28;5.80;;;4.90;;
29954;SDS011;16812;51.168;6.840;2022-08-14T00:46:00;6.13;;;5.37;;
29954;SDS011;16812;51.168;6.840;2022-08-14T00:48:30;6.70;;;5.20;;
29954;SDS011;16812;51.168;6.840;2022-08-14T00:51:02;13.87;;;5.30;;
29954;SDS011;16812;51.168;6.840;2022-08-14T00:53:29;6.27;;;5.67;;
29954;SDS011;16812;51.168;6.840;2022-08-14T00:55:58;7.67;;;5.30;;
29954;SDS011;16812;51.168;6.840;2022-08-14T00:58:25;6.00;;;5.43;;
29954;SDS011;16812;51.168;6.840;2022-08-14T01:00:59;6.77;;;5.63;;
29954;SDS011;16812;51.168;6.840;2022-08-14T01:03:27;7.17;;;5.80;;
29954;SDS011;16812;51.168;6.840;2022-08-14T01:05:56;8.43;;;6.60;;
29954;SDS011;16812;51.168;6.840;2022-08-14T01:08:26;5.90;;;5.40;;
29954;SDS011;16812;51.168;6.840;2022-08-14T01:11:13;6.53;;;5.83;;
29954;SDS011;16812;51.168;6.840;2022-08-14T01:13:45;6.80;;;6.00;;
29954;SDS011;16812;51.168;6.840;2022-08-14T01:16:22;6.67;;;5.43;;
29954;SDS011;16812;51.168;6.840;2022-08-14T01:18:56;8.20;;;6.30;;
29954;SDS011;16812;51.168;6.840;2022-08-14T01:21:30;5.53;;;5.03;;
29954;SDS011;16812;51.168;6.840;2022-08-14T01:24:00;11.60;;;6.53;;
29954;SDS011;16812;51.168;6.840;2022-08-14T01:26:30;8.03;;;6.10;;
29954;SDS011;16812;51.168;6.840;2022-08-14T01:29:04;7.23;;;6.30;;
29954;SDS011;16812;51.168;6.840;2022-08-14T01:31:36;6.40;;;5.37;;
29954;SDS011;16812;51.168;6.840;2022-08-14T01:34:04;9.13;;;6.10;;
29954;SDS011;16812;51.168;6.840;2022-08-14T01:36:53;9.60;;;6.70;;
29954;SDS011;16812;51.168;6.840;2022-08-14T01:39:20;8.80;;;6.50;;
29954;SDS011;16812;51.168;6.840;2022-08-14T01:41:48;6.63;;;5.90;;
29954;SDS011;16812;51.168;6.840;2022-08-14T01:44:15;7.60;;;6.80;;
29954;SDS011;16812;51.168;6.840;2022-08-14T01:46:59;6.90;;;6.20;;
29954;SDS011;16812;51.168;6.840;2022-08-14T01:49:31;8.87;;;6.90;;
29954;SDS011;16812;51.168;6.840;2022-08-14T01:52:02;7.23;;;6.47;;
29954;SDS011;16812;51.168;6.840;2022-08-14T01:54:38;8.63;;;7.30;;
29954;SDS011;16812;51.168;6.840;2022-08-14T01:57:08;6.90;;;6.20;;
29954;SDS011;16812;51.168;6.840;2022-08-14T01:59:36;10.27;;;6.93;;
29954;SDS011;16812;51.168;6.840;2022-08-14T02:02:09;9.90;;;7.53;;
29954;SDS011;16812;51.168;6.840;2022-08-14T02:04:44;7.70;;;6.37;;
29954;SDS011;16812;51.168;6.840;2022-08-14T02:07:24;8.10;;;7.30;;
29954;SDS011;16812;51.168;6.840;2022-08-14T02:10:10;7.90;;;7.10;;
29954;SDS011;16812;51.168;6.840;2022-08-14T02:12:40;9.47;;;7.47;;
29954;SDS011;16812;51.168;6.840;2022-08-14T02:15:08;14.30;;;8.97;;
29954;SDS011;16812;51.168;6.840;2022-08-14T02:17:35;9.03;;;8.00;;
29954;SDS011;16812;51.168;6.840;2022-08-14T02:20:04;8.50;;;7.70;;
29954;SDS011;16812;51.168;6.840;2022-08-14T02:22:32;9.70;;;7.53;;
29954;SDS011;16812;51.168;6.840;2022-08-14T02:25:12;9.03;;;7.00;;
29954;SDS011;16812;51.168;6.840;2022-08-14T02:27:42;9.60;;;8.63;;
29954;SDS011;16812;51.168;6.840;2022-08-14T02:30:29;10.70;;;7.70;;
29954;SDS011;16812;51.168;6.840;2022-08-14T02:32:56;8.50;;;7.60;;
29954;SDS011;16812;51.168;6.840;2022-08-14T02:35:24;9.33;;;8.33;;
29954;SDS011;16812;51.168;6.840;2022-08-14T02:37:59;9.73;;;8.50;;
29954;SDS011;16812;51.168;6.840;2022-08-14T02:40:30;14.23;;;7.73;;
29954;SDS011;16812;51.168;6.840;2022-08-14T02:42:59;10.47;;;7.00;;
29954;SDS011;16812;51.168;6.840;2022-08-14T02:45:28;9.40;;;8.37;;
29954;SDS011;16812;51.168;6.840;2022-08-14T02:48:04;8.37;;;7.57;;
29954;SDS011;16812;51.168;6.840;2022-08-14T02:50:35;9.53;;;7.73;;
29954;SDS011;16812;51.168;6.840;2022-08-14T02:53:05;8.97;;;8.03;;
29954;SDS011;16812;51.168;6.840;2022-08-14T02:55:34;12.70;;;7.60;;
29954;SDS011;16812;51.168;6.840;2022-08-14T02:58:01;8.20;;;7.30;;
29954;SDS011;16812;51.168;6.840;2022-08-14T03:00:32;11.00;;;9.10;;
29954;SDS011;16812;51.168;6.840;2022-08-14T03:02:59;9.43;;;8.43;;
29954;SDS011;16812;51.168;6.840;2022-08-14T03:05:27;9.90;;;8.03;;
29954;SDS011;16812;51.168;6.840;2022-08-14T03:08:06;10.17;;;8.47;;
29954;SDS011;16812;51.168;6.840;2022-08-14T03:10:34;9.57;;;8.67;;
29954;SDS011;16812;51.168;6.840;2022-08-14T03:13:06;9.63;;;8.50;;
29954;SDS011;16812;51.168;6.840;2022-08-14T03:15:45;11.33;;;9.40;;
29954;SDS011;16812;51.168;6.840;2022-08-14T03:18:16;14.10;;;9.30;;
29954;SDS011;16812;51.168;6.840;2022-08-14T03:20:43;9.23;;;8.23;;
29954;SDS011;16812;51.168;6.840;2022-08-14T03:23:13;10.03;;;8.97;;
29954;SDS011;16812;51.168;6.840;2022-08-14T03:25:41;11.27;;;9.53;;
29954;SDS011;16812;51.168;6.840;2022-08-14T03:28:10;9.93;;;8.50;;
29954;SDS011;16812;51.168;6.840;2022-08-14T03:30:55;9.83;;;8.30;;
29954;SDS011;16812;51.168;6.840;2022-08-14T03:33:25;12.17;;;8.40;;
29954;SDS011;16812;51.168;6.840;2022-08-14T03:36:03;8.00;;;7.20;;
29954;SDS011;16812;51.168;6.840;2022-08-14T03:38:52;9.17;;;8.27;;
29954;SDS011;16812;51.168;6.840;2022-08-14T03:41:39;11.20;;;9.30;;
29954;SDS011;16812;51.168;6.840;2022-08-14T03:44:07;9.70;;;8.70;;
29954;SDS011;16812;51.168;6.840;2022-08-14T03:46:54;9.00;;;8.20;;
29954;SDS011;16812;51.168;6.840;2022-08-14T03:49:22;10.73;;;8.50;;
29954;SDS011;16812;51.168;6.840;2022-08-14T03:51:54;8.90;;;8.00;;
29954;SDS011;16812;51.168;6.840;2022-08-14T03:54:25;9.27;;;7.70;;
29954;SDS011;16812;51.168;6.840;2022-08-14T03:56:52;9.40;;;8.40;;
29954;SDS011;16812;51.168;6.840;2022-08-14T03:59:19;10.00;;;8.70;;
29954;SDS011;16812;51.168;6.840;2022-08-14T04:01:46;11.77;;;8.47;;
29954;SDS011;16812;51.168;6.840;2022-08-14T04:04:27;12.20;;;9.00;;
29954;SDS011;16812;51.168;6.840;2022-08-14T04:06:55;9.70;;;8.23;;
29954;SDS011;16812;51.168;6.840;2022-08-14T04:09:25;9.43;;;8.53;;
29954;SDS011;16812;51.168;6.840;2022-08-14T04:11:53;13.43;;;9.60;;
29954;SDS011;16812;51.168;6.840;2022-08-14T04:14:21;13.03;;;9.07;;
29954;SDS011;16812;51.168;6.840;2022-08-14T04:16:49;12.50;;;9.30;;
29954;SDS011;16812;51.168;6.840;2022-08-14T04:19:16;10.30;;;9.20;;
29954;SDS011;16812;51.168;6.840;2022-08-14T04:21:43;10.40;;;8.73;;
29954;SDS011;16812;51.168;6.840;2022-08-14T04:24:30;12.20;;;8.60;;
29954;SDS011;16812;51.168;6.840;2022-08-14T04:27:04;9.97;;;8.00;;
29954;SDS011;16812;51.168;6.840;2022-08-14T04:29:35;9.03;;;8.07;;
29954;SDS011;16812;51.168;6.840;2022-08-14T04:32:03;10.30;;;9.07;;
29954;SDS011;16812;51.168;6.840;2022-08-14T04:34:50;10.10;;;9.10;;
29954;SDS011;16812;51.168;6.840;2022-08-14T04:37:19;9.97;;;8.87;;
29954;SDS011;16812;51.168;6.840;2022-08-14T04:39:52;11.30;;;9.17;;
29954;SDS011;16812;51.168;6.840;2022-08-14T04:42:23;12.60;;;9.70;;
29954;SDS011;16812;51.168;6.840;2022-08-14T04:44:51;12.60;;;10.40;;
29954;SDS011;16812;51.168;6.840;2022-08-14T04:47:26;11.30;;;9.27;;
29954;SDS011;16812;51.168;6.840;2022-08-14T04:49:56;11.47;;;9.43;;
29954;SDS011;16812;51.168;6.840;2022-08-14T04:52:23;10.47;;;9.17;;
29954;SDS011;16812;51.168;6.840;2022-08-14T04:54:52;10.77;;;9.70;;
29954;SDS011;16812;51.168;6.840;2022-08-14T04:57:20;15.80;;;9.70;;
29954;SDS011;16812;51.168;6.840;2022-08-14T04:59:48;9.83;;;8.77;;
29954;SDS011;16812;51.168;6.840;2022-08-14T05:02:16;10.53;;;9.47;;
29954;SDS011;16812;51.168;6.840;2022-08-14T05:04:43;10.43;;;9.10;;
29954;SDS011;16812;51.168;6.840;2022-08-14T05:07:22;9.90;;;8.93;;
29954;SDS011;16812;51.168;6.840;2022-08-14T05:10:11;10.33;;;8.40;;
29954;SDS011;16812;51.168;6.840;2022-08-14T05:12:47;8.97;;;8.07;;
29954;SDS011;16812;51.168;6.840;2022-08-14T05:15:34;9.73;;;8.80;;
29954;SDS011;16812;51.168;6.840;2022-08-14T05:18:06;12.00;;;8.27;;
29954;SDS011;16812;51.168;6.840;2022-08-14T05:20:54;11.40;;;9.67;;
29954;SDS011;16812;51.168;6.840;2022-08-14T05:23:42;10.30;;;9.27;;
29954;SDS011;16812;51.168;6.840;2022-08-14T05:26:12;11.90;;;8.80;;
29954;SDS011;16812;51.168;6.840;2022-08-14T05:28:40;14.23;;;9.40;;
29954;SDS011;16812;51.168;6.840;2022-08-14T05:31:08;10.80;;;8.87;;
29954;SDS011;16812;51.168;6.840;2022-08-14T05:33:36;9.53;;;8.53;;
29954;SDS011;16812;51.168;6.840;2022-08-14T05:36:04;9.87;;;8.30;;
29954;SDS011;16812;51.168;6.840;2022-08-14T05:38:42;10.80;;;8.23;;
29954;SDS011;16812;51.168;6.840;2022-08-14T05:41:10;9.47;;;8.20;;
29954;SDS011;16812;51.168;6.840;2022-08-14T05:43:40;9.67;;;8.37;;
29954;SDS011;16812;51.168;6.840;2022-08-14T05:46:09;10.47;;;9.13;;
29954;SDS011;16812;51.168;6.840;2022-08-14T05:48:40;11.17;;;8.60;;
29954;SDS011;16812;51.168;6.840;2022-08-14T05:51:08;9.40;;;8.50;;
29954;SDS011;16812;51.168;6.840;2022-08-14T05:53:36;10.57;;;8.20;;
29954;SDS011;16812;51.168;6.840;2022-08-14T05:56:07;9.40;;;8.40;;
29954;SDS011;16812;51.168;6.840;2022-08-14T05:58:35;11.60;;;7.67;;
29954;SDS011;16812;51.168;6.840;2022-08-14T06:01:08;8.60;;;7.57;;
29954;SDS011;16812;51.168;6.840;2022-08-14T06:03:35;9.97;;;7.53;;
29954;SDS011;16812;51.168;6.840;2022-08-14T06:06:05;9.20;;;8.20;;
29954;SDS011;16812;51.168;6.840;2022-08-14T06:08:33;11.33;;;8.27;;
29954;SDS011;16812;51.168;6.840;2022-08-14T06:11:07;9.23;;;8.43;;
29954;SDS011;16812;51.168;6.840;2022-08-14T06:13:35;8.30;;;7.60;;
29954;SDS011;16812;51.168;6.840;2022-08-14T06:16:13;10.67;;;7.90;;
29954;SDS011;16812;51.168;6.840;2022-08-14T06:18:44;8.80;;;7.90;;
29954;SDS011;16812;51.168;6.840;2022-08-14T06:21:13;10.53;;;8.23;;
29954;SDS011;16812;51.168;6.840;2022-08-14T06:23:40;9.47;;;8.57;;
29954;SDS011;16812;51.168;6.840;2022-08-14T06:26:08;10.87;;;8.60;;
29954;SDS011;16812;51.168;6.840;2022-08-14T06:28:36;10.20;;;9.20;;
29954;SDS011;16812;51.168;6.840;2022-08-14T06:31:06;10.93;;;8.57;;
29954;SDS011;16812;51.168;6.840;2022-08-14T06:33:35;9.23;;;8.40;;
29954;SDS011;16812;51.168;6.840;2022-08-14T06:36:22;8.77;;;7.90;;
29954;SDS011;16812;51.168;6.840;2022-08-14T06:38:50;10.53;;;8.70;;
29954;SDS011;16812;51.168;6.840;2022-08-14T06:41:17;10.50;;;7.90;;
29954;SDS011;16812;51.168;6.840;2022-08-14T06:43:58;10.00;;;9.00;;
29954;SDS011;16812;51.168;6.840;2022-08-14T06:46:27;11.97;;;8.53;;
29954;SDS011;16812;51.168;6.840;2022-08-14T06:49:03;9.37;;;8.40;;
29954;SDS011;16812;51.168;6.840;2022-08-14T06:51:31;10.83;;;8.60;;
29954;SDS011;16812;51.168;6.840;2022-08-14T06:54:10;8.80;;;7.97;;
29954;SDS011;16812;51.168;6.840;2022-08-14T06:56:37;8.60;;;7.90;;
29954;SDS011;16812;51.168;6.840;2022-08-14T06:59:09;9.97;;;8.97;;
29954;SDS011;16812;51.168;6.840;2022-08-14T07:01:45;7.50;;;6.80;;
29954;SDS011;16812;51.168;6.840;2022-08-14T07:04:16;9.30;;;8.50;;
29954;SDS011;16812;51.168;6.840;2022-08-14T07:06:50;9.10;;;8.20;;
29954;SDS011;16812;51.168;6.840;2022-08-14T07:09:24;10.27;;;8.13;;
29954;SDS011;16812;51.168;6.840;2022-08-14T07:11:53;11.63;;;7.87;;
29954;SDS011;16812;51.168;6.840;2022-08-14T07:14:21;8.53;;;7.67;;
29954;SDS011;16812;51.168;6.840;2022-08-14T07:16:48;8.23;;;7.43;;
29954;SDS011;16812;51.168;6.840;2022-08-14T07:19:17;10.03;;;8.93;;
29954;SDS011;16812;51.168;6.840;2022-08-14T07:21:46;10.17;;;8.83;;
29954;SDS011;16812;51.168;6.840;2022-08-14T07:24:15;12.13;;;8.67;;
29954;SDS011;16812;51.168;6.840;2022-08-14T07:26:51;9.13;;;8.27;;
29954;SDS011;16812;51.168;6.840;2022-08-14T07:29:18;8.77;;;7.87;;
29954;SDS011;16812;51.168;6.840;2022-08-14T07:31:51;9.63;;;7.57;;
29954;SDS011;16812;51.168;6.840;2022-08-14T07:34:19;9.67;;;8.70;;
29954;SDS011;16812;51.168;6.840;2022-08-14T07:37:02;12.67;;;8.90;;
29954;SDS011;16812;51.168;6.840;2022-08-14T07:39:29;9.10;;;8.20;;
29954;SDS011;16812;51.168;6.840;2022-08-14T07:41:59;10.00;;;7.53;;
29954;SDS011;16812;51.168;6.840;2022-08-14T07:44:27;8.57;;;7.77;;
29954;SDS011;16812;51.168;6.840;2022-08-14T07:47:11;8.13;;;7.40;;
29954;SDS011;16812;51.168;6.840;2022-08-14T07:49:40;8.30;;;7.50;;
29954;SDS011;16812;51.168;6.840;2022-08-14T07:52:08;7.80;;;7.20;;
29954;SDS011;16812;51.168;6.840;2022-08-14T07:54:38;8.25;;;6.93;;
29954;SDS011;16812;51.168;6.840;2022-08-14T07:57:08;7.73;;;7.00;;
29954;SDS011;16812;51.168;6.840;2022-08-14T07:59:47;7.28;;;6.57;;
29954;SDS011;16812;51.168;6.840;2022-08-14T08:02:15;8.13;;;7.20;;
29954;SDS011;16812;51.168;6.840;2022-08-14T08:04:47;7.13;;;6.47;;
29954;SDS011;16812;51.168;6.840;2022-08-14T08:07:15;7.30;;;6.70;;
29954;SDS011;16812;51.168;6.840;2022-08-14T08:09:43;6.35;;;5.85;;
29954;SDS011;16812;51.168;6.840;2022-08-14T08:12:16;6.70;;;6.10;;
29954;SDS011;16812;51.168;6.840;2022-08-14T08:14:45;6.22;;;5.72;;
29954;SDS011;16812;51.168;6.840;2022-08-14T08:17:28;6.47;;;5.88;;
29954;SDS011;16812;51.168;6.840;2022-08-14T08:20:01;11.20;;;7.00;;
29954;SDS011;16812;51.168;6.840;2022-08-14T08:22:29;13.73;;;6.70;;
29954;SDS011;16812;51.168;6.840;2022-08-14T08:24:57;6.97;;;6.28;;
29954;SDS011;16812;51.168;6.840;2022-08-14T08:27:26;7.35;;;6.75;;
29954;SDS011;16812;51.168;6.840;2022-08-14T08:30:01;7.38;;;6.82;;
29954;SDS011;16812;51.168;6.840;2022-08-14T08:32:28;7.65;;;7.05;;
29954;SDS011;16812;51.168;6.840;2022-08-14T08:35:08;9.15;;;6.20;;
29954;SDS011;16812;51.168;6.840;2022-08-14T08:37:35;6.95;;;6.25;;
29954;SDS011;16812;51.168;6.840;2022-08-14T08:40:09;6.95;;;6.25;;
29954;SDS011;16812;51.168;6.840;2022-08-14T08:42:46;5.88;;;5.47;;
29954;SDS011;16812;51.168;6.840;2022-08-14T08:45:20;8.00;;;5.68;;
29954;SDS011;16812;51.168;6.840;2022-08-14T08:47:49;5.88;;;5.47;;
29954;SDS011;16812;51.168;6.840;2022-08-14T08:50:19;7.10;;;6.50;;
29954;SDS011;16812;51.168;6.840;2022-08-14T08:52:56;5.72;;;5.20;;
29954;SDS011;16812;51.168;6.840;2022-08-14T08:55:28;6.50;;;6.10;;
29954;SDS011;16812;51.168;6.840;2022-08-14T08:57:56;6.38;;;5.97;;
29954;SDS011;16812;51.168;6.840;2022-08-14T09:00:23;5.57;;;5.18;;
29954;SDS011;16812;51.168;6.840;2022-08-14T09:02:53;5.60;;;5.13;;
29954;SDS011;16812;51.168;6.840;2022-08-14T09:05:22;5.95;;;5.55;;
29954;SDS011;16812;51.168;6.840;2022-08-14T09:07:51;7.30;;;5.43;;
29954;SDS011;16812;51.168;6.840;2022-08-14T09:10:21;6.25;;;5.75;;
29954;SDS011;16812;51.168;6.840;2022-08-14T09:12:52;5.72;;;5.22;;
29954;SDS011;16812;51.168;6.840;2022-08-14T09:15:20;5.20;;;4.88;;
29954;SDS011;16812;51.168;6.840;2022-08-14T09:17:49;5.18;;;4.80;;
29954;SDS011;16812;51.168;6.840;2022-08-14T09:20:19;6.07;;;5.57;;
29954;SDS011;16812;51.168;6.840;2022-08-14T09:22:57;7.35;;;6.28;;
29954;SDS011;16812;51.168;6.840;2022-08-14T09:25:25;6.15;;;5.70;;
29954;SDS011;16812;51.168;6.840;2022-08-14T09:28:12;5.70;;;5.30;;
29954;SDS011;16812;51.168;6.840;2022-08-14T09:30:41;9.13;;;4.97;;
29954;SDS011;16812;51.168;6.840;2022-08-14T09:36:12;5.50;;;5.05;;
29954;SDS011;16812;51.168;6.840;2022-08-14T09:38:46;5.70;;;5.20;;
29954;SDS011;16812;51.168;6.840;2022-08-14T09:41:17;5.97;;;5.47;;
29954;SDS011;16812;51.168;6.840;2022-08-14T09:43:50;5.57;;;5.10;;
29954;SDS011;16812;51.168;6.840;2022-08-14T09:46:21;5.32;;;4.65;;
29954;SDS011;16812;51.168;6.840;2022-08-14T09:48:56;5.43;;;5.03;;
29954;SDS011;16812;51.168;6.840;2022-08-14T09:51:23;5.35;;;4.85;;
29954;SDS011;16812;51.168;6.840;2022-08-14T09:54:00;4.68;;;4.20;;
29954;SDS011;16812;51.168;6.840;2022-08-14T09:56:49;5.43;;;5.10;;
29954;SDS011;16812;51.168;6.840;2022-08-14T09:59:22;4.85;;;4.35;;
29954;SDS011;16812;51.168;6.840;2022-08-14T10:01:49;4.78;;;4.47;;
29954;SDS011;16812;51.168;6.840;2022-08-14T10:04:19;4.32;;;4.03;;
29954;SDS011;16812;51.168;6.840;2022-08-14T10:07:03;6.07;;;4.05;;
29954;SDS011;16812;51.168;6.840;2022-08-14T10:09:32;4.25;;;3.95;;
29954;SDS011;16812;51.168;6.840;2022-08-14T10:12:00;4.43;;;4.22;;
29954;SDS011;16812;51.168;6.840;2022-08-14T10:14:31;4.70;;;4.40;;
29954;SDS011;16812;51.168;6.840;2022-08-14T10:17:02;4.43;;;4.13;;
29954;SDS011;16812;51.168;6.840;2022-08-14T10:19:30;4.10;;;3.80;;
29954;SDS011;16812;51.168;6.840;2022-08-14T10:22:02;7.25;;;4.10;;
29954;SDS011;16812;51.168;6.840;2022-08-14T10:24:51;4.22;;;3.92;;
29954;SDS011;16812;51.168;6.840;2022-08-14T10:27:19;4.22;;;3.60;;
29954;SDS011;16812;51.168;6.840;2022-08-14T10:29:46;4.45;;;4.15;;
29954;SDS011;16812;51.168;6.840;2022-08-14T10:32:14;4.40;;;4.10;;
29954;SDS011;16812;51.168;6.840;2022-08-14T10:35:02;5.43;;;3.55;;
29954;SDS011;16812;51.168;6.840;2022-08-14T10:37:36;3.83;;;3.53;;
29954;SDS011;16812;51.168;6.840;2022-08-14T10:40:07;4.45;;;3.97;;
29954;SDS011;16812;51.168;6.840;2022-08-14T10:42:54;4.45;;;4.03;;
29954;SDS011;16812;51.168;6.840;2022-08-14T10:45:22;3.88;;;3.67;;
29954;SDS011;16812;51.168;6.840;2022-08-14T10:47:51;5.00;;;4.43;;
29954;SDS011;16812;51.168;6.840;2022-08-14T10:50:36;4.03;;;3.75;;
29954;SDS011;16812;51.168;6.840;2022-08-14T10:53:07;3.90;;;3.50;;
29954;SDS011;16812;51.168;6.840;2022-08-14T10:55:37;4.10;;;3.83;;
29954;SDS011;16812;51.168;6.840;2022-08-14T10:58:10;5.10;;;4.03;;
29954;SDS011;16812;51.168;6.840;2022-08-14T11:00:39;4.43;;;4.13;;
29954;SDS011;16812;51.168;6.840;2022-08-14T11:03:12;3.75;;;3.55;;
29954;SDS011;16812;51.168;6.840;2022-08-14T11:05:59;4.18;;;3.78;;
29954;SDS011;16812;51.168;6.840;2022-08-14T11:08:38;7.18;;;3.72;;
29954;SDS011;16812;51.168;6.840;2022-08-14T11:11:08;4.50;;;4.10;;
29954;SDS011;16812;51.168;6.840;2022-08-14T11:13:35;6.30;;;3.65;;
29954;SDS011;16812;51.168;6.840;2022-08-14T11:16:03;4.32;;;4.00;;
29954;SDS011;16812;51.168;6.840;2022-08-14T11:18:32;3.53;;;3.33;;
29954;SDS011;16812;51.168;6.840;2022-08-14T11:21:06;3.65;;;3.45;;
29954;SDS011;16812;51.168;6.840;2022-08-14T11:23:35;3.80;;;3.50;;
29954;SDS011;16812;51.168;6.840;2022-08-14T11:26:06;4.68;;;4.22;;
29954;SDS011;16812;51.168;6.840;2022-08-14T11:28:36;5.15;;;4.65;;
29954;SDS011;16812;51.168;6.840;2022-08-14T11:31:14;4.35;;;3.95;;
29954;SDS011;16812;51.168;6.840;2022-08-14T11:33:42;4.60;;;4.20;;
29954;SDS011;16812;51.168;6.840;2022-08-14T11:36:09;5.05;;;4.75;;
29954;SDS011;16812;51.168;6.840;2022-08-14T11:38:44;4.75;;;4.35;;
29954;SDS011;16812;51.168;6.840;2022-08-14T11:41:12;4.75;;;4.38;;
29954;SDS011;16812;51.168;6.840;2022-08-14T11:43:44;6.53;;;4.55;;
29954;SDS011;16812;51.168;6.840;2022-08-14T11:46:24;5.88;;;5.28;;
29954;SDS011;16812;51.168;6.840;2022-08-14T11:49:02;4.88;;;4.47;;
29954;SDS011;16812;51.168;6.840;2022-08-14T11:51:31;7.35;;;5.85;;
29954;SDS011;16812;51.168;6.840;2022-08-14T11:54:18;5.97;;;5.40;;
29954;SDS011;16812;51.168;6.840;2022-08-14T11:56:59;5.20;;;4.78;;
29954;SDS011;16812;51.168;6.840;2022-08-14T11:59:27;6.43;;;4.70;;
29954;SDS011;16812;51.168;6.840;2022-08-14T12:02:07;5.22;;;4.72;;
29954;SDS011;16812;51.168;6.840;2022-08-14T12:04:54;4.50;;;4.20;;
29954;SDS011;16812;51.168;6.840;2022-08-14T12:07:23;5.07;;;4.68;;
29954;SDS011;16812;51.168;6.840;2022-08-14T12:09:51;5.57;;;5.03;;
29954;SDS011;16812;51.168;6.840;2022-08-14T12:12:22;5.00;;;4.45;;
29954;SDS011;16812;51.168;6.840;2022-08-14T12:15:03;5.95;;;5.45;;
29954;SDS011;16812;51.168;6.840;2022-08-14T12:17:42;5.50;;;4.90;;
29954;SDS011;16812;51.168;6.840;2022-08-14T12:20:15;4.45;;;4.15;;
29954;SDS011;16812;51.168;6.840;2022-08-14T12:22:58;4.40;;;4.00;;
29954;SDS011;16812;51.168;6.840;2022-08-14T12:25:26;5.40;;;4.05;;
29954;SDS011;16812;51.168;6.840;2022-08-14T12:27:54;4.25;;;3.90;;
29954;SDS011;16812;51.168;6.840;2022-08-14T12:30:29;4.13;;;3.83;;
29954;SDS011;16812;51.168;6.840;2022-08-14T12:33:17;4.30;;;4.00;;
29954;SDS011;16812;51.168;6.840;2022-08-14T12:35:49;5.75;;;4.47;;
29954;SDS011;16812;51.168;6.840;2022-08-14T12:38:29;4.93;;;4.43;;
29954;SDS011;16812;51.168;6.840;2022-08-14T12:40:57;5.70;;;4.63;;
29954;SDS011;16812;51.168;6.840;2022-08-14T12:43:24;4.82;;;4.38;;
29954;SDS011;16812;51.168;6.840;2022-08-14T12:45:56;4.80;;;4.40;;
29954;SDS011;16812;51.168;6.840;2022-08-14T12:48:23;5.30;;;4.25;;
29954;SDS011;16812;51.168;6.840;2022-08-14T12:50:58;4.10;;;3.80;;
29954;SDS011;16812;51.168;6.840;2022-08-14T12:53:32;4.28;;;3.97;;
29954;SDS011;16812;51.168;6.840;2022-08-14T12:56:04;4.60;;;4.30;;
29954;SDS011;16812;51.168;6.840;2022-08-14T12:58:52;4.38;;;4.07;;
29954;SDS011;16812;51.168;6.840;2022-08-14T13:01:23;4.53;;;4.13;;
29954;SDS011;16812;51.168;6.840;2022-08-14T13:04:01;6.00;;;3.97;;
29954;SDS011;16812;51.168;6.840;2022-08-14T13:06:30;6.03;;;4.28;;
29954;SDS011;16812;51.168;6.840;2022-08-14T13:08:59;4.60;;;4.22;;
29954;SDS011;16812;51.168;6.840;2022-08-14T13:11:28;4.55;;;4.10;;
29954;SDS011;16812;51.168;6.840;2022-08-14T13:13:57;4.68;;;4.28;;
29954;SDS011;16812;51.168;6.840;2022-08-14T13:16:26;4.65;;;4.25;;
29954;SDS011;16812;51.168;6.840;2022-08-14T13:19:03;3.78;;;3.50;;
29954;SDS011;16812;51.168;6.840;2022-08-14T13:21:36;3.92;;;3.63;;
29954;SDS011;16812;51.168;6.840;2022-08-14T13:24:24;4.32;;;4.03;;
29954;SDS011;16812;51.168;6.840;2022-08-14T13:26:54;4.43;;;4.03;;
29954;SDS011;16812;51.168;6.840;2022-08-14T13:29:22;3.83;;;3.63;;
29954;SDS011;16812;51.168;6.840;2022-08-14T13:31:52;4.45;;;4.05;;
29954;SDS011;16812;51.168;6.840;2022-08-14T13:34:21;5.00;;;4.10;;
29954;SDS011;16812;51.168;6.840;2022-08-14T13:36:49;4.47;;;4.07;;
29954;SDS011;16812;51.168;6.840;2022-08-14T13:39:29;5.32;;;3.88;;
29954;SDS011;16812;51.168;6.840;2022-08-14T13:42:02;4.63;;;4.20;;
29954;SDS011;16812;51.168;6.840;2022-08-14T13:44:33;3.70;;;3.50;;
29954;SDS011;16812;51.168;6.840;2022-08-14T13:47:02;4.47;;;4.07;;
29954;SDS011;16812;51.168;6.840;2022-08-14T13:49:29;4.30;;;4.00;;
29954;SDS011;16812;51.168;6.840;2022-08-14T13:51:58;4.78;;;4.38;;
29954;SDS011;16812;51.168;6.840;2022-08-14T13:54:49;4.50;;;4.20;;
29954;SDS011;16812;51.168;6.840;2022-08-14T13:57:20;5.82;;;4.20;;
29954;SDS011;16812;51.168;6.840;2022-08-14T13:59:56;4.38;;;3.97;;
29954;SDS011;16812;51.168;6.840;2022-08-14T14:02:39;4.45;;;4.05;;
29954;SDS011;16812;51.168;6.840;2022-08-14T14:05:12;4.43;;;4.10;;
29954;SDS011;16812;51.168;6.840;2022-08-14T14:07:43;3.90;;;3.60;;
29954;SDS011;16812;51.168;6.840;2022-08-14T14:10:13;4.90;;;4.40;;
29954;SDS011;16812;51.168;6.840;2022-08-14T14:12:42;4.00;;;3.70;;
29954;SDS011;16812;51.168;6.840;2022-08-14T14:15:21;6.88;;;4.45;;
29954;SDS011;16812;51.168;6.840;2022-08-14T14:18:10;3.95;;;3.65;;
29954;SDS011;16812;51.168;6.840;2022-08-14T14:20:57;4.32;;;4.03;;
29954;SDS011;16812;51.168;6.840;2022-08-14T14:23:25;4.63;;;4.22;;
29954;SDS011;16812;51.168;6.840;2022-08-14T14:25:55;4.45;;;4.10;;
29954;SDS011;16812;51.168;6.840;2022-08-14T14:28:24;4.15;;;3.60;;
29954;SDS011;16812;51.168;6.840;2022-08-14T14:30:55;5.18;;;4.68;;
29954;SDS011;16812;51.168;6.840;2022-08-14T14:33:33;4.82;;;3.85;;
29954;SDS011;16812;51.168;6.840;2022-08-14T14:36:19;4.60;;;4.20;;
29954;SDS011;16812;51.168;6.840;2022-08-14T14:38:50;4.53;;;4.13;;
29954;SDS011;16812;51.168;6.840;2022-08-14T14:41:18;4.60;;;4.20;;
29954;SDS011;16812;51.168;6.840;2022-08-14T14:43:47;4.43;;;4.03;;
29954;SDS011;16812;51.168;6.840;2022-08-14T14:46:17;4.55;;;4.15;;
29954;SDS011;16812;51.168;6.840;2022-08-14T14:48:47;5.15;;;4.32;;
29954;SDS011;16812;51.168;6.840;2022-08-14T14:51:20;7.10;;;4.50;;
29954;SDS011;16812;51.168;6.840;2022-08-14T14:53:47;4.72;;;4.30;;
29954;SDS011;16812;51.168;6.840;2022-08-14T14:56:14;4.63;;;4.22;;
29954;SDS011;16812;51.168;6.840;2022-08-14T14:59:02;4.75;;;4.35;;
29954;SDS011;16812;51.168;6.840;2022-08-14T15:01:29;4.95;;;4.35;;
29954;SDS011;16812;51.168;6.840;2022-08-14T15:03:59;3.95;;;3.63;;
29954;SDS011;16812;51.168;6.840;2022-08-14T15:06:33;4.40;;;4.00;;
29954;SDS011;16812;51.168;6.840;2022-08-14T15:09:00;4.20;;;3.90;;
29954;SDS011;16812;51.168;6.840;2022-08-14T15:11:34;4.15;;;3.85;;
29954;SDS011;16812;51.168;6.840;2022-08-14T15:14:02;4.80;;;4.40;;
29954;SDS011;16812;51.168;6.840;2022-08-14T15:16:49;4.38;;;4.07;;
29954;SDS011;16812;51.168;6.840;2022-08-14T15:19:18;4.25;;;3.80;;